createdAt,value
2023-01-17T00:02:12.040Z,98487.27
2023-01-17T00:04:57.469Z,98490.13
2023-01-17T00:07:43.756Z,98489.91
2023-01-17T00:10:13.430Z,98496.45
2023-01-17T00:12:47.212Z,98494.06
2023-01-17T00:15:14.336Z,98494.46
2023-01-17T00:17:40.977Z,98493.90
2023-01-17T00:20:28.759Z,98488.90
2023-01-17T00:23:14.104Z,98483.86
2023-01-17T00:26:00.200Z,98488.11
2023-01-17T00:28:27.462Z,98480.42
2023-01-17T00:30:57.277Z,98481.20
2023-01-17T00:33:24.673Z,98486.92
2023-01-17T00:35:52.968Z,98490.66
2023-01-17T00:38:22.130Z,98487.98
2023-01-17T00:40:49.281Z,98489.32
2023-01-17T00:43:37.635Z,98490.47
2023-01-17T00:46:23.361Z,98496.06
2023-01-17T00:49:08.908Z,98495.33
2023-01-17T00:51:55.284Z,98497.39
2023-01-17T00:54:41.432Z,98491.66
2023-01-17T00:57:26.735Z,98496.81
2023-01-17T01:00:11.883Z,98500.84
2023-01-17T01:02:57.453Z,98508.49
2023-01-17T01:05:43.110Z,98514.48
2023-01-17T01:08:54.652Z,98518.45
2023-01-17T01:11:40.049Z,98522.27
2023-01-17T01:14:28.557Z,98518.61
2023-01-17T01:17:14.027Z,98511.77
2023-01-17T01:19:59.231Z,98509.10
2023-01-17T01:22:44.521Z,98505.84
2023-01-17T01:25:29.875Z,98511.89
2023-01-17T01:28:28.226Z,98517.45
2023-01-17T01:31:13.754Z,98525.79
2023-01-17T01:33:40.445Z,98532.63
2023-01-17T01:36:09.008Z,98528.23
2023-01-17T01:38:35.720Z,98530.79
2023-01-17T01:41:02.895Z,98532.38
2023-01-17T01:43:51.079Z,98532.44
2023-01-17T01:46:25.698Z,98534.42
2023-01-17T01:48:55.816Z,98538.41
2023-01-17T01:51:29.232Z,98544.40
2023-01-17T01:54:03.721Z,98545.17
2023-01-17T01:56:31.953Z,98547.05
2023-01-17T01:59:02.858Z,98549.34
2023-01-17T02:01:31.088Z,98550.52
2023-01-17T02:03:57.939Z,98548.92
2023-01-17T02:06:48.006Z,98551.73
2023-01-17T02:09:17.099Z,98551.89
2023-01-17T02:11:45.980Z,98547.62
2023-01-17T02:14:20.341Z,98545.07
2023-01-17T02:17:02.980Z,98538.72
2023-01-17T02:19:57.895Z,98535.58
2023-01-17T02:23:10.320Z,98535.61
2023-01-17T02:25:55.765Z,98532.02
2023-01-17T02:28:53.438Z,98528.92
2023-01-17T02:31:44.756Z,98524.64
2023-01-17T02:34:50.224Z,98526.20
2023-01-17T02:37:24.796Z,98524.48
2023-01-17T02:40:04.648Z,98517.20
2023-01-17T02:42:42.676Z,98513.95
2023-01-17T02:45:14.680Z,98503.33
2023-01-17T02:47:41.268Z,98498.20
2023-01-17T02:50:14.855Z,98497.14
2023-01-17T02:52:53.795Z,98492.17
2023-01-17T02:55:52.713Z,98494.97
2023-01-17T02:58:55.080Z,98489.04
2023-01-17T03:01:58.796Z,98480.51
2023-01-17T03:04:38.214Z,98478.86
2023-01-17T03:07:11.823Z,98479.64
2023-01-17T03:09:40.796Z,98475.66
2023-01-17T03:12:09.634Z,98468.97
2023-01-17T03:14:36.281Z,98456.36
2023-01-17T03:17:03.041Z,98449.95
2023-01-17T03:19:29.989Z,98442.61
2023-01-17T03:21:57.131Z,98438.33
2023-01-17T03:24:26.055Z,98439.39
2023-01-17T03:26:52.754Z,98440.30
2023-01-17T03:29:19.688Z,98440.72
2023-01-17T03:31:49.326Z,98438.15
2023-01-17T03:34:15.924Z,98439.61
2023-01-17T03:36:42.551Z,98438.45
2023-01-17T03:39:12.041Z,98434.52
2023-01-17T03:41:38.797Z,98433.09
2023-01-17T03:44:05.880Z,98436.59
2023-01-17T03:46:32.917Z,98432.66
2023-01-17T03:48:59.553Z,98433.64
2023-01-17T03:51:28.960Z,98444.55
2023-01-17T03:53:55.527Z,98444.48
2023-01-17T03:56:22.241Z,98447.02
2023-01-17T03:58:48.930Z,98457.30
2023-01-17T04:01:15.922Z,98463.48
2023-01-17T04:03:42.627Z,98468.23
2023-01-17T04:06:09.255Z,98466.27
2023-01-17T04:08:35.900Z,98459.42
2023-01-17T04:11:02.626Z,98461.89
2023-01-17T04:13:29.270Z,98471.16
2023-01-17T04:15:56.173Z,98475.75
2023-01-17T04:18:24.601Z,98478.11
2023-01-17T04:20:52.649Z,98467.14
2023-01-17T04:23:19.408Z,98455.73
2023-01-17T04:25:49.164Z,98458.40
2023-01-17T04:28:15.832Z,98463.84
2023-01-17T04:30:42.448Z,98469.09
2023-01-17T04:33:09.099Z,98472.73
2023-01-17T04:35:36.101Z,98468.77
2023-01-17T04:38:02.809Z,98466.23
2023-01-17T04:40:29.689Z,98464.91
2023-01-17T04:42:57.976Z,98468.16
2023-01-17T04:45:24.648Z,98469.37
2023-01-17T04:47:51.365Z,98466.60
2023-01-17T04:50:18.339Z,98454.02
2023-01-17T04:52:45.073Z,98448.50
2023-01-17T04:55:11.771Z,98447.96
2023-01-17T04:57:38.483Z,98443.87
2023-01-17T05:00:05.634Z,98444.92
2023-01-17T05:02:32.461Z,98451.91
2023-01-17T05:04:59.114Z,98458.73
2023-01-17T05:07:25.835Z,98457.07
2023-01-17T05:09:52.468Z,98449.30
2023-01-17T05:12:19.072Z,98447.43
2023-01-17T05:14:45.686Z,98452.67
2023-01-17T05:17:12.333Z,98458.77
2023-01-17T05:19:39.070Z,98458.93
2023-01-17T05:22:14.993Z,98455.03
2023-01-17T05:24:43.514Z,98450.40
2023-01-17T05:27:12.255Z,98441.95
2023-01-17T05:29:39.666Z,98437.69
2023-01-17T05:32:06.967Z,98433.66
2023-01-17T05:34:34.326Z,98428.79
2023-01-17T05:37:00.911Z,98429.48
2023-01-17T05:39:27.661Z,98433.10
2023-01-17T05:41:54.283Z,98433.02
2023-01-17T05:44:21.081Z,98440.33
2023-01-17T05:46:47.721Z,98443.54
2023-01-17T05:49:15.478Z,98441.26
2023-01-17T05:51:42.772Z,98441.66
2023-01-17T05:54:09.384Z,98450.70
2023-01-17T05:56:36.061Z,98457.82
2023-01-17T05:59:02.770Z,98443.49
2023-01-17T06:01:29.516Z,98431.59
2023-01-17T06:03:56.152Z,98423.09
2023-01-17T06:06:23.077Z,98424.20
2023-01-17T06:08:49.741Z,98425.39
2023-01-17T06:11:16.480Z,98418.48
2023-01-17T06:13:43.117Z,98416.70
2023-01-17T06:16:09.990Z,98417.41
2023-01-17T06:18:36.633Z,98411.44
2023-01-17T06:21:03.254Z,98405.80
2023-01-17T06:23:30.223Z,98400.52
2023-01-17T06:25:56.788Z,98396.55
2023-01-17T06:28:24.238Z,98401.63
2023-01-17T06:30:50.928Z,98397.36
2023-01-17T06:33:17.685Z,98397.00
2023-01-17T06:35:51.791Z,98391.42
2023-01-17T06:38:19.079Z,98384.98
2023-01-17T06:40:45.850Z,98372.07
2023-01-17T06:43:12.755Z,98360.38
2023-01-17T06:45:39.522Z,98353.56
2023-01-17T06:48:06.495Z,98345.52
2023-01-17T06:50:34.158Z,98331.48
2023-01-17T06:53:04.294Z,98322.69
2023-01-17T06:55:33.792Z,98324.10
2023-01-17T06:58:02.699Z,98319.30
2023-01-17T07:00:30.876Z,98319.66
2023-01-17T07:02:58.140Z,98324.98
2023-01-17T07:05:25.018Z,98333.54
2023-01-17T07:07:51.759Z,98343.76
2023-01-17T07:10:18.523Z,98356.32
2023-01-17T07:12:45.818Z,98356.04
2023-01-17T07:15:13.264Z,98352.73
2023-01-17T07:17:39.958Z,98355.55
2023-01-17T07:20:07.382Z,98363.04
2023-01-17T07:22:34.207Z,98375.11
2023-01-17T07:25:00.862Z,98378.27
2023-01-17T07:27:31.025Z,98384.14
2023-01-17T07:29:58.103Z,98388.52
2023-01-17T07:32:26.776Z,98390.73
2023-01-17T07:34:59.303Z,98395.47
2023-01-17T07:37:28.750Z,98396.88
2023-01-17T07:39:56.459Z,98395.79
2023-01-17T07:42:24.297Z,98391.23
2023-01-17T07:44:51.226Z,98374.69
2023-01-17T07:47:17.917Z,98365.46
2023-01-17T07:49:44.640Z,98361.66
2023-01-17T07:52:11.747Z,98360.53
2023-01-17T07:54:40.400Z,98350.61
2023-01-17T07:57:11.937Z,98334.08
2023-01-17T07:59:38.556Z,98322.35
2023-01-17T08:02:05.360Z,98320.31
2023-01-17T08:04:35.276Z,98322.06
2023-01-17T08:07:02.077Z,98317.30
2023-01-17T08:09:28.906Z,98312.56
2023-01-17T08:11:55.527Z,98305.05
2023-01-17T08:14:22.068Z,98299.73
2023-01-17T08:16:48.678Z,98293.44
2023-01-17T08:19:15.347Z,98289.46
2023-01-17T08:21:41.942Z,98293.21
2023-01-17T08:24:14.995Z,98294.58
2023-01-17T08:26:41.763Z,98286.38
2023-01-17T08:29:09.161Z,98286.23
2023-01-17T08:31:36.065Z,98284.23
2023-01-17T08:34:02.761Z,98274.20
2023-01-17T08:36:31.369Z,98271.64
2023-01-17T08:38:58.899Z,98277.04
2023-01-17T08:41:27.830Z,98275.28
2023-01-17T08:43:54.595Z,98271.65
2023-01-17T08:46:21.253Z,98269.45
2023-01-17T08:48:58.763Z,98264.23
2023-01-17T08:51:28.980Z,98262.56
2023-01-17T08:53:56.583Z,98264.02
2023-01-17T08:56:23.818Z,98258.53
2023-01-17T08:58:50.431Z,98263.72
2023-01-17T09:01:17.399Z,98263.13
2023-01-17T09:03:45.646Z,98270.02
2023-01-17T09:06:15.013Z,98267.29
2023-01-17T09:08:46.946Z,98255.79
2023-01-17T09:11:18.079Z,98252.90
2023-01-17T09:13:46.914Z,98251.99
2023-01-17T09:16:13.609Z,98253.23
2023-01-17T09:18:40.297Z,98264.89
2023-01-17T09:21:14.130Z,98268.31
2023-01-17T09:23:41.658Z,98275.71
2023-01-17T09:26:18.184Z,98275.16
2023-01-17T09:28:44.858Z,98271.85
2023-01-17T09:31:12.232Z,98277.18
2023-01-17T09:33:41.803Z,98278.15
2023-01-17T09:36:10.260Z,98273.27
2023-01-17T09:38:37.921Z,98267.60
2023-01-17T09:41:29.297Z,98275.08
2023-01-17T09:44:05.029Z,98267.08
2023-01-17T09:46:37.445Z,98269.27
2023-01-17T09:49:14.953Z,98270.77
2023-01-17T09:51:42.723Z,98274.54
2023-01-17T09:54:22.121Z,98265.26
2023-01-17T09:57:00.723Z,98261.63
2023-01-17T09:59:37.878Z,98246.20
2023-01-17T10:02:18.495Z,98242.90
2023-01-17T10:04:45.401Z,98237.83
2023-01-17T10:07:42.020Z,98227.55
2023-01-17T10:10:14.709Z,98219.61
2023-01-17T10:13:20.140Z,98217.83
2023-01-17T10:16:12.589Z,98202.05
2023-01-17T10:18:51.477Z,98195.77
2023-01-17T10:21:43.256Z,98184.94
2023-01-17T10:24:41.480Z,98186.13
2023-01-17T10:27:44.774Z,98182.60
2023-01-17T10:30:20.067Z,98176.29
2023-01-17T10:32:49.683Z,98181.21
2023-01-17T10:35:25.750Z,98172.65
2023-01-17T10:37:56.900Z,98159.11
2023-01-17T10:40:41.017Z,98157.05
2023-01-17T10:43:22.748Z,98165.47
2023-01-17T10:45:54.528Z,98165.80
2023-01-17T10:48:53.627Z,98175.13
2023-01-17T10:51:44.849Z,98178.39
2023-01-17T10:54:31.411Z,98180.89
2023-01-17T10:56:58.883Z,98189.35
2023-01-17T10:59:33.872Z,98187.23
2023-01-17T11:02:07.404Z,98190.98
2023-01-17T11:04:36.867Z,98195.69
2023-01-17T11:07:28.306Z,98184.81
2023-01-17T11:09:57.686Z,98178.36
2023-01-17T11:12:38.327Z,98180.10
2023-01-17T11:15:10.867Z,98173.88
2023-01-17T11:17:48.952Z,98171.67
2023-01-17T11:20:39.940Z,98167.77
2023-01-17T11:23:23.125Z,98162.92
2023-01-17T11:25:55.713Z,98170.77
2023-01-17T11:28:32.058Z,98173.00
2023-01-17T11:31:25.980Z,98165.23
2023-01-17T11:34:07.698Z,98168.94
2023-01-17T11:36:34.538Z,98165.27
2023-01-17T11:39:04.307Z,98156.65
2023-01-17T11:41:42.312Z,98161.31
2023-01-17T11:44:30.447Z,98160.39
2023-01-17T11:47:12.596Z,98154.91
2023-01-17T11:49:41.008Z,98146.30
2023-01-17T11:52:24.281Z,98133.91
2023-01-17T11:54:53.596Z,98132.83
2023-01-17T11:57:31.435Z,98131.48
2023-01-17T12:00:22.492Z,98130.20
2023-01-17T12:03:24.683Z,98123.22
2023-01-17T12:05:58.533Z,98114.12
2023-01-17T12:08:36.838Z,98107.73
2023-01-17T12:11:06.137Z,98096.33
2023-01-17T12:13:57.847Z,98085.88
2023-01-17T12:16:51.074Z,98067.05
2023-01-17T12:19:55.289Z,98052.77
2023-01-17T12:22:35.325Z,98049.06
2023-01-17T12:25:23.098Z,98043.98
2023-01-17T12:28:18.823Z,98036.24
2023-01-17T12:31:20.680Z,98036.46
2023-01-17T12:33:53.506Z,98030.85
2023-01-17T12:36:38.470Z,98024.58
2023-01-17T12:39:10.193Z,98000.83
2023-01-17T12:41:54.384Z,97982.20
2023-01-17T12:44:25.182Z,97964.60
2023-01-17T12:47:02.309Z,97959.79
2023-01-17T12:49:36.450Z,97959.20
2023-01-17T12:52:12.959Z,97956.40
2023-01-17T12:54:44.315Z,97949.70
2023-01-17T12:57:14.352Z,97953.41
2023-01-17T13:00:05.657Z,97953.09
2023-01-17T13:02:38.916Z,97949.66
2023-01-17T13:17:25.412Z,97900.88
2023-01-17T13:20:11.065Z,97892.75
2023-01-17T13:22:39.932Z,97885.35
2023-01-17T13:25:32.743Z,97893.31
2023-01-17T13:28:05.132Z,97895.01
2023-01-17T13:31:10.706Z,97896.90
2023-01-17T13:33:49.666Z,97890.18
2023-01-17T13:37:04.822Z,97892.75
2023-01-17T13:39:49.642Z,97890.34
2023-01-17T13:42:56.198Z,97873.31
2023-01-17T13:45:25.970Z,97861.52
2023-01-17T13:47:54.006Z,97862.75
2023-01-17T13:50:47.440Z,97869.02
2023-01-17T13:53:29.318Z,97870.17
2023-01-17T13:56:03.971Z,97856.83
2023-01-17T13:58:51.755Z,97853.70
2023-01-17T14:01:24.800Z,97862.49
2023-01-17T14:03:54.814Z,97873.70
2023-01-17T14:06:50.018Z,97866.87
2023-01-17T14:09:27.817Z,97857.50
2023-01-17T14:12:01.038Z,97851.03
2023-01-17T14:14:39.892Z,97850.99
2023-01-17T14:17:37.245Z,97842.79
2023-01-17T14:20:09.807Z,97833.84
2023-01-17T14:22:41.787Z,97828.19
2023-01-17T14:25:11.190Z,97819.04
2023-01-17T14:28:01.806Z,97813.92
2023-01-17T14:30:28.474Z,97808.30
2023-01-17T14:33:10.552Z,97806.14
2023-01-17T14:35:41.044Z,97814.08
2023-01-17T14:38:21.856Z,97816.24
2023-01-17T14:40:59.620Z,97820.66
2023-01-17T14:43:28.797Z,97822.82
2023-01-17T14:46:04.218Z,97826.70
2023-01-17T14:48:31.376Z,97830.27
2023-01-17T14:51:00.215Z,97830.05
2023-01-17T14:53:31.606Z,97839.42
2023-01-17T14:56:12.577Z,97841.70
2023-01-17T14:58:39.764Z,97851.15
2023-01-17T15:01:19.486Z,97859.31
2023-01-17T15:03:53.534Z,97865.95
2023-01-17T15:06:27.887Z,97882.58
2023-01-17T15:08:54.695Z,97887.98
2023-01-17T15:11:30.992Z,97889.84
2023-01-17T15:14:00.505Z,97890.02
2023-01-17T15:16:36.786Z,97899.58
2023-01-17T15:19:14.099Z,97899.98
2023-01-17T15:21:43.201Z,97900.98
2023-01-17T15:24:27.615Z,97896.52
2023-01-17T15:26:54.749Z,97891.23
2023-01-17T15:29:41.982Z,97885.05
2023-01-17T15:32:19.192Z,97880.27
2023-01-17T15:34:48.631Z,97885.77
2023-01-17T15:37:33.604Z,97886.45
2023-01-17T15:40:05.785Z,97888.26
2023-01-17T15:42:36.469Z,97890.04
2023-01-17T15:45:06.297Z,97896.12
2023-01-17T15:47:38.698Z,97898.05
2023-01-17T15:50:30.659Z,97903.52
2023-01-17T15:53:05.623Z,97906.83
2023-01-17T15:55:36.026Z,97912.16
2023-01-17T15:58:22.972Z,97911.45
2023-01-17T16:00:52.911Z,97906.77
2023-01-17T16:03:19.571Z,97905.27
2023-01-17T16:05:47.157Z,97894.68
2023-01-17T16:08:16.698Z,97902.85
2023-01-17T16:10:44.413Z,97910.38
2023-01-17T16:13:13.684Z,97918.70
2023-01-17T16:15:41.996Z,97928.02
2023-01-17T16:18:24.652Z,97933.67
2023-01-17T16:21:18.692Z,97935.80
2023-01-17T16:23:46.052Z,97940.38
2023-01-17T16:26:12.725Z,97937.33
2023-01-17T16:28:40.685Z,97940.27
2023-01-17T16:31:07.411Z,97950.05
2023-01-17T16:33:34.734Z,97963.36
2023-01-17T16:36:01.382Z,97966.52
2023-01-17T16:38:28.053Z,97964.77
2023-01-17T16:40:56.142Z,97962.63
2023-01-17T16:43:22.819Z,97963.29
2023-01-17T16:45:53.121Z,97977.79
2023-01-17T16:48:20.898Z,97987.71
2023-01-17T16:50:53.262Z,97987.56
2023-01-17T16:53:24.666Z,97986.30
2023-01-17T16:55:56.100Z,97987.36
2023-01-17T16:58:22.888Z,97988.64
2023-01-17T17:00:49.593Z,97988.77
2023-01-17T17:03:18.469Z,97993.24
2023-01-17T17:05:47.261Z,97996.18
2023-01-17T17:08:15.483Z,97997.15
2023-01-17T17:10:42.222Z,97995.05
2023-01-17T17:13:08.874Z,97990.64
2023-01-17T17:15:35.582Z,97987.08
2023-01-17T17:18:02.595Z,97982.98
2023-01-17T17:20:29.208Z,97980.52
2023-01-17T17:22:56.416Z,97976.70
2023-01-17T17:25:23.187Z,97978.52
2023-01-17T17:27:52.877Z,97979.16
2023-01-17T17:30:19.880Z,97979.89
2023-01-17T17:32:47.655Z,97985.21
2023-01-17T17:35:14.891Z,97992.41
2023-01-17T17:37:41.558Z,98001.25
2023-01-17T17:40:09.044Z,98001.40
2023-01-17T17:42:35.716Z,97993.42
2023-01-17T17:45:02.613Z,97983.77
2023-01-17T17:47:30.670Z,97979.61
2023-01-17T17:49:57.341Z,97975.48
2023-01-17T17:52:24.011Z,97973.38
2023-01-17T17:54:50.708Z,97970.67
2023-01-17T17:57:17.318Z,97975.23
2023-01-17T17:59:46.462Z,97988.61
2023-01-17T18:02:13.176Z,97997.06
2023-01-17T18:04:39.952Z,98001.02
2023-01-17T18:07:06.660Z,98010.87
2023-01-17T18:09:33.332Z,98015.21
2023-01-17T18:12:00.986Z,98020.83
2023-01-17T18:14:27.677Z,98025.83
2023-01-17T18:16:54.479Z,98024.09
2023-01-17T18:19:24.736Z,98025.35
2023-01-17T18:21:52.361Z,98026.38
2023-01-17T18:24:24.011Z,98025.81
2023-01-17T18:26:57.118Z,98018.20
2023-01-17T18:29:25.374Z,98016.53
2023-01-17T18:31:53.155Z,98019.38
2023-01-17T18:34:24.017Z,98020.92
2023-01-17T18:36:51.669Z,98019.20
2023-01-17T18:39:27.357Z,98017.85
2023-01-17T18:41:55.275Z,98015.58
2023-01-17T18:44:24.001Z,98009.63
2023-01-17T18:46:52.992Z,98015.32
2023-01-17T18:49:20.069Z,98020.61
2023-01-17T18:51:51.286Z,98023.11
2023-01-17T18:54:20.043Z,98026.80
2023-01-17T18:56:49.819Z,98035.39
2023-01-17T18:59:18.651Z,98040.83
2023-01-17T19:01:47.343Z,98039.73
2023-01-17T19:04:15.637Z,98041.39
2023-01-17T19:06:45.013Z,98039.76
2023-01-17T19:09:13.617Z,98044.16
2023-01-17T19:11:43.210Z,98048.56
2023-01-17T19:14:10.277Z,98043.38
2023-01-17T19:16:40.313Z,98046.50
2023-01-17T19:19:10.078Z,98050.39
2023-01-17T19:21:37.203Z,98051.77
2023-01-17T19:24:04.603Z,98054.85
2023-01-17T19:26:32.407Z,98056.16
2023-01-17T19:29:00.017Z,98060.11
2023-01-17T19:31:29.271Z,98057.34
2023-01-17T19:34:00.939Z,98051.82
2023-01-17T19:36:32.041Z,98050.83
2023-01-17T19:39:05.395Z,98049.88
2023-01-17T19:41:35.699Z,98052.81
2023-01-17T19:44:05.199Z,98050.79
2023-01-17T19:46:32.615Z,98049.63
2023-01-17T19:48:59.786Z,98043.27
2023-01-17T19:51:26.967Z,98034.42
2023-01-17T19:53:54.137Z,98035.26
2023-01-17T19:56:25.878Z,98036.75
2023-01-17T19:58:53.635Z,98034.29
2023-01-17T20:01:28.391Z,98030.84
2023-01-17T20:03:58.018Z,98030.31
2023-01-17T20:06:29.232Z,98028.83
2023-01-17T20:08:57.277Z,98026.39
2023-01-17T20:11:26.157Z,98021.47
2023-01-17T20:13:55.846Z,98018.58
2023-01-17T20:16:24.123Z,98026.37
2023-01-17T20:18:50.998Z,98022.71
2023-01-17T20:21:27.415Z,98024.50
2023-01-17T20:23:57.240Z,98016.08
2023-01-17T20:26:31.153Z,98015.57
2023-01-17T20:28:59.232Z,98009.69
2023-01-17T20:31:27.976Z,98009.02
2023-01-17T20:33:57.553Z,98005.93
2023-01-17T20:36:29.234Z,98003.02
2023-01-17T20:38:57.296Z,97994.67
2023-01-17T20:41:28.740Z,97989.02
2023-01-17T20:43:58.273Z,97987.19
2023-01-17T20:46:28.021Z,97984.02
2023-01-17T20:48:59.810Z,97985.52
2023-01-17T20:51:28.525Z,97978.83
2023-01-17T20:54:00.898Z,97978.61
2023-01-17T20:56:30.017Z,97978.06
2023-01-17T20:58:57.973Z,97987.11
2023-01-17T21:01:24.823Z,97984.99
2023-01-17T21:03:54.004Z,97986.05
2023-01-17T21:06:22.813Z,97986.80
2023-01-17T21:08:50.293Z,97986.25
2023-01-17T21:11:22.673Z,97984.21
2023-01-17T21:13:49.985Z,97981.34
2023-01-17T21:16:19.124Z,97979.15
2023-01-17T21:18:47.935Z,97983.75
2023-01-17T21:21:18.769Z,97985.90
2023-01-17T21:23:45.834Z,97987.51
2023-01-17T21:26:14.735Z,97987.88
2023-01-17T21:28:43.320Z,97982.79
2023-01-17T21:31:24.892Z,97987.31
2023-01-17T21:34:00.292Z,97988.98
2023-01-17T21:36:29.447Z,97989.75
2023-01-17T21:38:58.276Z,97990.13
2023-01-17T21:41:28.747Z,97997.05
2023-01-17T21:44:08.689Z,97999.29
2023-01-17T21:46:38.454Z,98000.66
2023-01-17T21:49:05.709Z,97998.40
2023-01-17T21:51:51.253Z,97996.48
2023-01-17T21:54:44.605Z,97992.75
2023-01-17T21:57:32.313Z,97995.23
2023-01-17T22:00:00.103Z,97995.67
2023-01-17T22:02:26.977Z,98002.27
2023-01-17T22:04:54.823Z,98002.67
2023-01-17T22:07:22.026Z,98000.34
2023-01-17T22:09:50.788Z,97993.68
2023-01-17T22:12:20.192Z,97989.83
2023-01-17T22:14:46.894Z,97983.92
2023-01-17T22:17:13.547Z,97985.94
2023-01-17T22:19:40.236Z,97990.66
2023-01-17T22:22:06.991Z,97993.18
2023-01-17T22:24:36.416Z,97988.34
2023-01-17T22:27:03.508Z,97984.94
2023-01-17T22:29:32.424Z,97986.39
2023-01-17T22:31:58.997Z,97995.21
2023-01-17T22:34:25.761Z,98005.15
2023-01-17T22:36:52.416Z,98014.89
2023-01-17T22:39:19.017Z,98013.48
2023-01-17T22:41:45.686Z,98017.08
2023-01-17T22:44:12.678Z,98026.98
2023-01-17T22:46:40.502Z,98036.98
2023-01-17T22:49:13.344Z,98032.30
2023-01-17T22:51:39.986Z,98033.56
2023-01-17T22:54:06.706Z,98036.77
2023-01-17T22:56:34.009Z,98038.30
2023-01-17T22:59:01.962Z,98035.19
2023-01-17T23:01:31.172Z,98034.92
2023-01-17T23:04:03.771Z,98033.81
2023-01-17T23:06:35.447Z,98034.98
2023-01-17T23:09:05.848Z,98034.55
2023-01-17T23:11:40.799Z,98038.66
2023-01-17T23:14:24.522Z,98039.39
2023-01-17T23:17:14.400Z,98029.73
2023-01-17T23:19:49.503Z,98021.64
2023-01-17T23:22:26.923Z,98022.54
2023-01-17T23:24:56.928Z,98020.98
2023-01-17T23:28:00.226Z,98016.95
2023-01-17T23:30:35.784Z,98014.66
2023-01-17T23:33:05.879Z,98011.60
2023-01-17T23:35:36.762Z,98009.38
2023-01-17T23:38:23.703Z,97998.83
2023-01-17T23:41:10.181Z,97987.98
2023-01-17T23:43:37.596Z,97995.02
2023-01-17T23:46:05.197Z,97996.36
2023-01-17T23:48:31.846Z,97997.59
2023-01-17T23:51:01.082Z,97994.17
2023-01-17T23:53:28.122Z,98001.40
2023-01-17T23:55:56.855Z,98019.04
2023-01-17T23:58:26.263Z,98018.29
